createdAt,value
2022-09-10T00:01:35.857Z,97419.60
2022-09-10T00:04:08.128Z,97418.10
2022-09-10T00:06:38.747Z,97416.38
2022-09-10T00:09:07.961Z,97411.80
2022-09-10T00:11:38.636Z,97408.94
2022-09-10T00:14:09.407Z,97409.84
2022-09-10T00:16:38.010Z,97405.20
2022-09-10T00:19:07.273Z,97402.34
2022-09-10T00:21:35.762Z,97400.52
2022-09-10T00:24:05.297Z,97396.33
2022-09-10T00:26:40.433Z,97398.81
2022-09-10T00:29:10.729Z,97401.39
2022-09-10T00:31:40.156Z,97399.17
2022-09-10T00:34:09.302Z,97398.96
2022-09-10T00:36:40.953Z,97396.70
2022-09-10T00:39:13.004Z,97396.25
2022-09-10T00:41:43.290Z,97396.30
2022-09-10T00:44:42.070Z,97396.41
2022-09-10T00:47:19.506Z,97392.61
2022-09-10T00:49:54.310Z,97388.75
2022-09-10T00:52:22.590Z,97389.61
2022-09-10T00:54:51.789Z,97389.89
2022-09-10T00:57:23.586Z,97383.20
2022-09-10T01:00:04.691Z,97373.45
2022-09-10T01:02:32.607Z,97370.66
2022-09-10T01:05:02.941Z,97372.86
2022-09-10T01:07:33.149Z,97376.29
2022-09-10T01:10:06.909Z,97375.13
2022-09-10T01:13:00.010Z,97371.23
2022-09-10T01:15:33.873Z,97363.95
2022-09-10T01:18:03.519Z,97359.52
2022-09-10T01:20:59.793Z,97358.93
2022-09-10T01:23:46.114Z,97366.74
2022-09-10T01:26:49.537Z,97370.71
2022-09-10T01:29:33.210Z,97354.83
2022-09-10T01:32:15.544Z,97346.70
2022-09-10T01:34:56.454Z,97347.81
2022-09-10T01:37:30.387Z,97348.20
2022-09-10T01:40:01.948Z,97350.61
2022-09-10T01:42:32.985Z,97350.38
2022-09-10T01:45:01.331Z,97351.20
2022-09-10T01:48:01.792Z,97352.56
2022-09-10T01:51:15.162Z,97347.31
2022-09-10T01:54:13.538Z,97343.48
2022-09-10T01:56:57.478Z,97343.55
2022-09-10T01:59:51.723Z,97337.58
2022-09-10T02:02:26.085Z,97334.19
2022-09-10T02:04:55.349Z,97331.68
2022-09-10T02:07:27.026Z,97331.48
2022-09-10T02:09:56.895Z,97328.53
2022-09-10T02:12:25.586Z,97323.42
2022-09-10T02:15:05.222Z,97325.11
2022-09-10T02:17:49.406Z,97323.77
2022-09-10T02:20:20.023Z,97324.66
2022-09-10T02:22:58.762Z,97320.56
2022-09-10T02:25:31.887Z,97316.58
2022-09-10T02:27:59.731Z,97310.65
2022-09-10T02:30:27.501Z,97309.41
2022-09-10T02:32:55.811Z,97308.89
2022-09-10T02:35:24.150Z,97299.58
2022-09-10T02:37:53.529Z,97295.08
2022-09-10T02:40:21.499Z,97293.48
2022-09-10T02:42:49.525Z,97295.11
2022-09-10T02:45:22.020Z,97292.66
2022-09-10T02:47:50.119Z,97294.83
2022-09-10T02:50:19.098Z,97289.99
2022-09-10T02:52:47.601Z,97281.28
2022-09-10T02:55:16.113Z,97273.73
2022-09-10T02:57:44.294Z,97271.73
2022-09-10T03:00:12.413Z,97276.04
2022-09-10T03:02:40.526Z,97278.45
2022-09-10T03:05:08.743Z,97277.31
2022-09-10T03:07:36.935Z,97276.59
2022-09-10T03:10:05.163Z,97273.20
2022-09-10T03:12:33.883Z,97264.52
2022-09-10T03:15:01.847Z,97264.77
2022-09-10T03:17:30.092Z,97263.27
2022-09-10T03:19:58.524Z,97257.95
2022-09-10T03:22:26.335Z,97253.58
2022-09-10T03:24:55.170Z,97255.71
2022-09-10T03:27:26.376Z,97253.89
2022-09-10T03:29:54.963Z,97253.13
2022-09-10T03:32:25.047Z,97261.02
2022-09-10T03:34:53.280Z,97273.42
2022-09-10T03:37:24.208Z,97280.67
2022-09-10T03:39:52.619Z,97285.58
2022-09-10T03:42:20.653Z,97291.48
2022-09-10T03:44:48.522Z,97289.77
2022-09-10T03:47:16.690Z,97284.22
2022-09-10T03:49:44.640Z,97278.41
2022-09-10T03:52:14.153Z,97275.77
2022-09-10T03:54:42.856Z,97274.59
2022-09-10T03:57:11.221Z,97269.81
2022-09-10T03:59:41.361Z,97262.55
2022-09-10T04:02:10.623Z,97258.86
2022-09-10T04:04:38.611Z,97259.71
2022-09-10T04:07:07.239Z,97257.67
2022-09-10T04:09:35.294Z,97256.70
2022-09-10T04:12:04.101Z,97254.73
2022-09-10T04:14:34.701Z,97251.61
2022-09-10T04:17:03.723Z,97252.98
2022-09-10T04:19:32.225Z,97252.84
2022-09-10T04:21:59.985Z,97253.16
2022-09-10T04:24:27.899Z,97247.84
2022-09-10T04:26:56.806Z,97248.90
2022-09-10T04:29:25.114Z,97256.84
2022-09-10T04:31:53.071Z,97268.82
2022-09-10T04:34:22.890Z,97266.20
2022-09-10T04:36:53.603Z,97261.99
2022-09-10T04:39:22.152Z,97256.38
2022-09-10T04:41:50.707Z,97248.28
2022-09-10T04:44:20.141Z,97252.57
2022-09-10T04:46:48.548Z,97251.86
2022-09-10T04:49:16.479Z,97245.54
2022-09-10T04:51:44.356Z,97244.23
2022-09-10T04:54:14.516Z,97241.58
2022-09-10T04:56:43.714Z,97242.10
2022-09-10T04:59:11.830Z,97247.44
2022-09-10T05:01:40.081Z,97252.21
2022-09-10T05:04:08.094Z,97254.48
2022-09-10T05:06:38.173Z,97254.65
2022-09-10T05:09:08.629Z,97253.65
2022-09-10T05:11:37.364Z,97248.20
2022-09-10T05:14:05.702Z,97244.02
2022-09-10T05:16:33.677Z,97246.77
2022-09-10T05:19:01.802Z,97245.99
2022-09-10T05:21:33.645Z,97243.02
2022-09-10T05:24:01.933Z,97242.55
2022-09-10T05:26:30.250Z,97234.23
2022-09-10T05:29:00.245Z,97227.17
2022-09-10T05:31:28.668Z,97227.77
2022-09-10T05:33:57.717Z,97221.56
2022-09-10T05:36:25.538Z,97209.34
2022-09-10T05:38:55.257Z,97206.79
2022-09-10T05:41:24.020Z,97213.42
2022-09-10T05:43:51.970Z,97216.27
2022-09-10T05:46:20.250Z,97210.93
2022-09-10T05:48:51.065Z,97204.96
2022-09-10T05:51:20.170Z,97198.64
2022-09-10T05:53:50.031Z,97200.45
2022-09-10T05:56:22.754Z,97188.79
2022-09-10T05:58:51.224Z,97178.39
2022-09-10T06:01:19.445Z,97179.71
2022-09-10T06:03:51.017Z,97185.08
2022-09-10T06:06:19.734Z,97194.45
2022-09-10T06:08:57.659Z,97200.11
2022-09-10T06:11:54.480Z,97192.78
2022-09-10T06:14:24.852Z,97192.41
2022-09-10T06:16:55.327Z,97185.36
2022-09-10T06:19:25.098Z,97181.11
2022-09-10T06:21:52.959Z,97182.25
2022-09-10T06:24:22.697Z,97186.98
2022-09-10T06:26:52.552Z,97181.95
2022-09-10T06:29:20.461Z,97176.80
2022-09-10T06:31:48.988Z,97177.40
2022-09-10T06:34:19.069Z,97182.49
2022-09-10T06:36:48.150Z,97179.73
2022-09-10T06:39:17.245Z,97176.32
2022-09-10T06:41:55.394Z,97176.48
2022-09-10T06:44:41.904Z,97173.75
2022-09-10T06:48:06.864Z,97175.17
2022-09-10T06:50:16.475Z,97172.85
2022-09-10T06:52:48.918Z,97168.80
2022-09-10T06:55:18.752Z,97164.70
2022-09-10T06:57:47.972Z,97161.23
2022-09-10T07:00:17.661Z,97159.52
2022-09-10T07:02:50.828Z,97155.23
2022-09-10T07:05:19.032Z,97162.71
2022-09-10T07:07:47.321Z,97165.16
2022-09-10T07:10:15.769Z,97164.89
2022-09-10T07:12:44.952Z,97163.95
2022-09-10T07:15:13.388Z,97156.66
2022-09-10T07:17:41.251Z,97149.73
2022-09-10T07:20:11.204Z,97150.99
2022-09-10T07:22:44.790Z,97150.38
2022-09-10T07:25:14.415Z,97143.34
2022-09-10T07:27:54.311Z,97140.89
2022-09-10T07:30:22.565Z,97133.34
2022-09-10T07:32:51.711Z,97128.03
2022-09-10T07:35:24.145Z,97116.53
2022-09-10T07:37:52.089Z,97104.00
2022-09-10T07:40:23.516Z,97096.98
2022-09-10T07:42:52.849Z,97087.45
2022-09-10T07:45:21.520Z,97075.52
2022-09-10T07:47:50.119Z,97078.13
2022-09-10T07:50:19.300Z,97081.05
2022-09-10T07:52:52.433Z,97074.71
2022-09-10T07:55:21.331Z,97076.21
2022-09-10T07:57:49.774Z,97071.58
2022-09-10T08:00:18.630Z,97057.77
2022-09-10T08:02:51.801Z,97043.26
2022-09-10T08:05:21.662Z,97040.79
2022-09-10T08:07:53.909Z,97040.19
2022-09-10T08:10:22.903Z,97038.58
2022-09-10T08:12:51.327Z,97038.41
2022-09-10T08:15:19.301Z,97033.41
2022-09-10T08:17:48.228Z,97036.51
2022-09-10T08:20:17.062Z,97038.66
2022-09-10T08:22:45.215Z,97039.40
2022-09-10T08:25:15.466Z,97039.33
2022-09-10T08:27:43.765Z,97017.58
2022-09-10T08:30:12.525Z,97018.44
2022-09-10T08:32:42.940Z,97018.66
2022-09-10T08:35:11.232Z,97012.39
2022-09-10T08:37:39.159Z,97003.98
2022-09-10T08:40:09.297Z,97015.63
2022-09-10T08:42:43.451Z,97016.30
2022-09-10T08:45:16.590Z,97009.65
2022-09-10T08:48:13.963Z,97015.45
2022-09-10T08:51:11.123Z,97008.39
2022-09-10T08:53:54.723Z,96999.94
2022-09-10T08:56:24.209Z,96991.96
2022-09-10T08:58:58.775Z,96995.39
2022-09-10T09:01:34.818Z,96994.48
2022-09-10T09:04:13.264Z,97002.27
2022-09-10T09:06:48.363Z,96994.98
2022-09-10T09:09:16.666Z,96994.85
2022-09-10T09:12:02.280Z,96992.54
2022-09-10T09:14:36.873Z,96984.27
2022-09-10T09:17:35.742Z,96981.34
2022-09-10T09:20:31.216Z,96977.08
2022-09-10T09:23:20.378Z,96985.94
2022-09-10T09:25:51.014Z,96984.58
2022-09-10T09:28:34.044Z,96980.59
2022-09-10T09:31:10.254Z,96972.48
2022-09-10T09:33:39.208Z,96972.54
2022-09-10T09:36:13.452Z,96975.17
2022-09-10T09:38:51.617Z,96975.40
2022-09-10T09:41:31.416Z,96971.27
2022-09-10T09:44:22.964Z,96973.33
2022-09-10T09:46:50.902Z,96975.83
2022-09-10T09:49:18.968Z,96977.70
2022-09-10T09:51:48.981Z,96977.20
2022-09-10T09:57:20.707Z,96980.08
2022-09-10T09:59:50.588Z,96978.41
2022-09-10T10:02:26.071Z,96976.21
2022-09-10T10:05:04.496Z,96974.35
2022-09-10T10:07:34.979Z,96978.45
2022-09-10T10:10:07.653Z,96984.58
2022-09-10T10:12:48.641Z,96984.91
2022-09-10T10:15:44.351Z,96989.98
2022-09-10T10:18:28.991Z,96984.53
2022-09-10T10:21:18.004Z,96986.94
2022-09-10T10:23:47.226Z,96991.59
2022-09-10T10:26:20.972Z,96988.55
2022-09-10T10:28:49.963Z,96993.13
2022-09-10T10:31:19.447Z,96991.39
2022-09-10T10:34:15.276Z,96994.36
2022-09-10T10:37:07.404Z,96996.92
2022-09-10T10:40:01.381Z,96999.36
2022-09-10T10:42:38.329Z,97013.39
2022-09-10T10:45:10.100Z,97012.69
2022-09-10T10:47:46.976Z,97017.23
2022-09-10T10:50:18.460Z,97015.27
2022-09-10T10:53:10.652Z,97016.27
2022-09-10T10:55:56.713Z,97022.47
2022-09-10T10:58:54.144Z,97030.40
2022-09-10T11:01:30.299Z,97030.08
2022-09-10T11:04:25.468Z,97027.92
2022-09-10T11:07:18.441Z,97028.17
2022-09-10T11:10:23.605Z,97027.45
2022-09-10T11:13:07.102Z,97022.41
2022-09-10T11:15:46.339Z,97025.14
2022-09-10T11:18:33.511Z,97030.71
2022-09-10T11:21:04.902Z,97028.37
2022-09-10T11:23:34.232Z,97032.34
2022-09-10T11:26:14.101Z,97032.22
2022-09-10T11:29:03.887Z,97029.59
2022-09-10T11:31:36.848Z,97026.23
2022-09-10T11:34:28.796Z,97021.69
2022-09-10T11:37:30.218Z,97023.33
2022-09-10T11:40:03.305Z,97026.39
2022-09-10T11:42:40.655Z,97026.67
2022-09-10T11:45:40.427Z,97025.73
2022-09-10T11:48:14.769Z,97028.08
2022-09-10T11:50:58.406Z,97035.00
2022-09-10T11:53:26.558Z,97039.58
2022-09-10T11:56:07.985Z,97034.68
2022-09-10T11:59:13.112Z,97035.44
2022-09-10T12:02:22.419Z,97042.89
2022-09-10T12:05:28.169Z,97044.98
2022-09-10T12:08:08.232Z,97037.69
2022-09-10T12:10:55.198Z,97045.23
2022-09-10T12:13:23.216Z,97043.36
2022-09-10T12:15:56.329Z,97050.04
2022-09-10T12:18:28.863Z,97051.91
2022-09-10T12:21:09.463Z,97068.86
2022-09-10T12:23:42.541Z,97074.45
2022-09-10T12:26:16.455Z,97081.17
2022-09-10T12:28:53.577Z,97070.91
2022-09-10T12:31:22.736Z,97068.64
2022-09-10T12:33:51.239Z,97078.56
2022-09-10T12:36:27.977Z,97090.40
2022-09-10T12:39:25.822Z,97102.70
2022-09-10T12:42:02.354Z,97104.75
2022-09-10T12:44:36.407Z,97113.73
2022-09-10T12:47:16.613Z,97116.40
2022-09-10T12:49:46.901Z,97115.94
2022-09-10T12:52:51.226Z,97117.98
2022-09-10T12:55:43.683Z,97118.31
2022-09-10T12:58:30.850Z,97121.15
2022-09-10T13:01:17.159Z,97118.79
2022-09-10T13:04:06.618Z,97119.98
2022-09-10T13:06:44.913Z,97125.27
2022-09-10T13:09:25.226Z,97115.84
2022-09-10T13:11:57.850Z,97120.10
2022-09-10T13:14:41.181Z,97132.05
2022-09-10T13:17:37.809Z,97133.10
2022-09-10T13:20:31.905Z,97130.67
2022-09-10T13:23:08.805Z,97134.86
2022-09-10T13:25:40.407Z,97139.84
2022-09-10T13:28:37.556Z,97137.18
2022-09-10T13:31:11.425Z,97136.27
2022-09-10T13:33:52.351Z,97135.30
2022-09-10T13:36:42.634Z,97141.08
2022-09-10T13:39:25.339Z,97153.23
2022-09-10T13:42:11.881Z,97161.23
2022-09-10T13:45:14.962Z,97166.78
2022-09-10T13:47:51.921Z,97173.60
2022-09-10T13:50:25.827Z,97173.98
2022-09-10T13:52:58.871Z,97174.00
2022-09-10T13:55:30.407Z,97172.67
2022-09-10T13:58:08.412Z,97171.64
2022-09-10T14:00:49.328Z,97164.27
2022-09-10T14:03:26.040Z,97154.80
2022-09-10T14:06:07.868Z,97149.11
2022-09-10T14:08:39.520Z,97133.38
2022-09-10T14:11:13.701Z,97128.43
2022-09-10T14:13:56.055Z,97125.47
2022-09-10T14:16:47.030Z,97125.23
2022-09-10T14:19:22.509Z,97119.58
2022-09-10T14:21:52.169Z,97111.39
2022-09-10T14:24:47.199Z,97114.10
2022-09-10T14:27:16.276Z,97116.73
2022-09-10T14:29:44.645Z,97118.90
2022-09-10T14:32:33.653Z,97122.32
2022-09-10T14:35:38.330Z,97114.19
2022-09-10T14:38:35.637Z,97114.09
2022-09-10T14:41:11.190Z,97119.05
2022-09-10T14:43:40.694Z,97117.14
2022-09-10T14:46:12.375Z,97116.27
2022-09-10T14:48:44.493Z,97119.21
2022-09-10T14:51:20.104Z,97120.11
2022-09-10T14:53:56.614Z,97117.68
2022-09-10T14:56:29.019Z,97122.95
2022-09-10T14:59:00.597Z,97112.44
2022-09-10T15:01:29.416Z,97106.00
2022-09-10T15:03:59.355Z,97104.02
2022-09-10T15:06:27.695Z,97105.56
2022-09-10T15:08:58.361Z,97113.75
2022-09-10T15:11:28.174Z,97112.70
2022-09-10T15:13:56.619Z,97113.05
2022-09-10T15:16:24.810Z,97108.95
2022-09-10T15:18:52.646Z,97108.23
2022-09-10T15:21:20.617Z,97107.77
2022-09-10T15:23:48.418Z,97104.58
2022-09-10T15:26:16.434Z,97106.38
2022-09-10T15:28:44.281Z,97111.80
2022-09-10T15:31:12.356Z,97112.67
2022-09-10T15:33:40.618Z,97109.60
2022-09-10T15:36:08.768Z,97112.63
2022-09-10T15:38:36.737Z,97116.08
2022-09-10T15:41:13.608Z,97120.77
2022-09-10T15:43:43.196Z,97126.29
2022-09-10T15:46:12.920Z,97125.77
2022-09-10T15:48:41.029Z,97125.63
2022-09-10T15:51:17.301Z,97124.64
2022-09-10T15:53:46.155Z,97125.54
2022-09-10T15:56:15.903Z,97129.28
2022-09-10T15:58:56.566Z,97133.93
2022-09-10T16:01:28.982Z,97137.48
2022-09-10T16:04:03.970Z,97142.77
2022-09-10T16:06:39.485Z,97148.89
2022-09-10T16:09:10.934Z,97149.47
2022-09-10T16:11:40.985Z,97150.48
2022-09-10T16:14:12.734Z,97153.92
2022-09-10T16:16:44.169Z,97153.14
2022-09-10T16:19:13.855Z,97152.84
2022-09-10T16:21:41.822Z,97155.25
2022-09-10T16:24:10.285Z,97155.06
2022-09-10T16:26:41.322Z,97156.27
2022-09-10T16:29:19.727Z,97152.71
2022-09-10T16:31:48.195Z,97149.65
2022-09-10T16:34:22.318Z,97146.25
2022-09-10T16:36:51.566Z,97145.80
2022-09-10T16:39:20.442Z,97144.79
2022-09-10T16:41:51.129Z,97143.65
2022-09-10T16:44:19.917Z,97143.29
2022-09-10T16:46:48.301Z,97143.39
2022-09-10T16:49:19.978Z,97144.45
2022-09-10T16:51:50.062Z,97146.62
2022-09-10T16:54:22.450Z,97157.56
2022-09-10T16:56:51.560Z,97158.53
2022-09-10T16:59:22.630Z,97167.38
2022-09-10T17:01:52.749Z,97183.05
2022-09-10T17:04:28.492Z,97187.83
2022-09-10T17:06:58.714Z,97185.81
2022-09-10T17:09:26.868Z,97190.84
2022-09-10T17:11:55.571Z,97198.41
2022-09-10T17:14:24.869Z,97216.07
2022-09-10T17:16:53.623Z,97229.38
2022-09-10T17:19:23.991Z,97237.25
2022-09-10T17:21:55.711Z,97243.08
2022-09-10T17:24:26.828Z,97246.05
2022-09-10T17:26:55.681Z,97244.17
2022-09-10T17:29:26.184Z,97251.24
2022-09-10T17:31:55.590Z,97247.59
2022-09-10T17:34:24.774Z,97239.36
2022-09-10T17:36:52.836Z,97233.71
2022-09-10T17:39:20.939Z,97234.42
2022-09-10T17:41:49.077Z,97232.20
2022-09-10T17:44:18.220Z,97233.19
2022-09-10T17:46:46.624Z,97240.09
2022-09-10T17:49:15.781Z,97239.51
2022-09-10T17:51:44.642Z,97239.45
2022-09-10T17:54:14.134Z,97242.20
2022-09-10T17:56:43.689Z,97244.09
2022-09-10T17:59:16.396Z,97242.51
2022-09-10T18:01:45.717Z,97245.98
2022-09-10T18:04:14.505Z,97248.77
2022-09-10T18:06:44.009Z,97249.98
2022-09-10T18:09:12.422Z,97254.13
2022-09-10T18:11:41.480Z,97261.61
2022-09-10T18:14:17.573Z,97262.59
2022-09-10T18:16:46.617Z,97261.88
2022-09-10T18:19:16.801Z,97261.80
2022-09-10T18:21:47.213Z,97258.34
2022-09-10T18:24:22.945Z,97251.58
2022-09-10T18:26:54.282Z,97253.31
2022-09-10T18:29:29.993Z,97250.98
2022-09-10T18:32:02.946Z,97249.52
2022-09-10T18:34:31.473Z,97249.07
2022-09-10T18:37:01.515Z,97252.46
2022-09-10T18:39:31.954Z,97254.11
2022-09-10T18:42:01.283Z,97254.65
2022-09-10T18:44:36.726Z,97252.55
2022-09-10T18:47:27.993Z,97252.36
2022-09-10T18:49:59.148Z,97254.98
2022-09-10T18:52:29.317Z,97252.23
2022-09-10T18:54:57.249Z,97251.39
2022-09-10T18:57:25.054Z,97247.99
2022-09-10T18:59:55.147Z,97248.69
2022-09-10T19:02:23.152Z,97248.96
2022-09-10T19:05:10.304Z,97247.08
2022-09-10T19:07:39.062Z,97246.93
2022-09-10T19:10:08.516Z,97244.57
2022-09-10T19:12:36.395Z,97240.72
2022-09-10T19:15:04.486Z,97231.55
2022-09-10T19:17:32.302Z,97226.77
2022-09-10T19:20:00.130Z,97227.04
2022-09-10T19:22:28.048Z,97227.96
2022-09-10T19:24:56.781Z,97224.88
2022-09-10T19:27:24.666Z,97224.75
2022-09-10T19:29:53.448Z,97220.45
2022-09-10T19:32:22.227Z,97220.60
2022-09-10T19:34:51.345Z,97221.39
2022-09-10T19:37:19.940Z,97220.33
2022-09-10T19:39:48.330Z,97214.05
2022-09-10T19:42:16.560Z,97207.61
2022-09-10T19:44:44.569Z,97200.41
2022-09-10T19:47:12.405Z,97193.38
2022-09-10T19:49:40.279Z,97191.17
2022-09-10T19:52:08.154Z,97186.77
2022-09-10T19:54:36.084Z,97178.11
2022-09-10T19:57:04.129Z,97183.73
2022-09-10T19:59:32.113Z,97183.80
2022-09-10T20:02:00.158Z,97182.48
2022-09-10T20:04:28.806Z,97184.64
2022-09-10T20:06:56.891Z,97183.95
2022-09-10T20:09:25.115Z,97189.75
2022-09-10T20:11:53.710Z,97189.36
2022-09-10T20:14:21.562Z,97186.54
2022-09-10T20:16:49.753Z,97187.45
2022-09-10T20:19:18.639Z,97194.23
2022-09-10T20:21:47.882Z,97201.90
2022-09-10T20:24:16.441Z,97205.14
2022-09-10T20:26:46.842Z,97207.59
2022-09-10T20:29:18.108Z,97209.64
2022-09-10T20:31:47.784Z,97213.45
2022-09-10T20:34:21.269Z,97212.27
2022-09-10T20:36:51.414Z,97210.66
2022-09-10T20:39:22.430Z,97209.71
2022-09-10T20:41:50.276Z,97209.05
2022-09-10T20:44:20.924Z,97211.83
2022-09-10T20:46:48.832Z,97209.88
2022-09-10T20:49:17.189Z,97214.00
2022-09-10T20:51:45.799Z,97218.20
2022-09-10T20:54:16.783Z,97222.84
2022-09-10T20:56:46.083Z,97219.30
2022-09-10T20:59:19.586Z,97216.59
2022-09-10T21:01:50.988Z,97216.42
2022-09-10T21:04:19.670Z,97216.73
2022-09-10T21:06:47.752Z,97213.64
2022-09-10T21:09:15.754Z,97212.55
2022-09-10T21:11:43.519Z,97213.91
2022-09-10T21:14:12.416Z,97212.23
2022-09-10T21:16:42.431Z,97220.17
2022-09-10T21:19:13.357Z,97225.03
2022-09-10T21:21:42.776Z,97221.56
2022-09-10T21:24:16.245Z,97220.21
2022-09-10T21:26:45.015Z,97219.46
2022-09-10T21:29:15.940Z,97224.72
2022-09-10T21:31:45.453Z,97220.52
2022-09-10T21:34:14.986Z,97221.08
2022-09-10T21:36:43.988Z,97220.33
2022-09-10T21:39:17.503Z,97219.27
2022-09-10T21:41:48.222Z,97219.82
2022-09-10T21:44:20.009Z,97214.73
2022-09-10T21:46:49.011Z,97219.39
2022-09-10T21:49:17.436Z,97224.17
2022-09-10T21:51:45.555Z,97230.72
2022-09-10T21:54:20.576Z,97235.34
2022-09-10T21:56:49.670Z,97239.61
2022-09-10T21:59:19.420Z,97240.69
2022-09-10T22:01:49.095Z,97244.77
2022-09-10T22:04:22.066Z,97241.90
2022-09-10T22:06:52.050Z,97238.98
2022-09-10T22:09:21.308Z,97239.89
2022-09-10T22:11:51.884Z,97245.73
2022-09-10T22:14:22.241Z,97249.15
2022-09-10T22:16:50.898Z,97251.21
2022-09-10T22:19:22.502Z,97251.02
2022-09-10T22:21:51.253Z,97250.88
2022-09-10T22:24:19.318Z,97248.63
2022-09-10T22:26:47.578Z,97250.90
2022-09-10T22:29:19.084Z,97258.44
2022-09-10T22:31:48.039Z,97260.53
2022-09-10T22:34:17.614Z,97263.01
2022-09-10T22:36:46.722Z,97264.27
2022-09-10T22:39:18.500Z,97264.42
2022-09-10T22:41:48.191Z,97268.27
2022-09-10T22:44:17.942Z,97268.39
2022-09-10T22:46:46.278Z,97272.21
2022-09-10T22:49:16.268Z,97276.70
2022-09-10T22:51:44.718Z,97274.15
2022-09-10T22:54:12.642Z,97274.85
2022-09-10T22:56:40.516Z,97277.04
2022-09-10T22:59:15.223Z,97278.01
2022-09-10T23:01:47.775Z,97279.62
2022-09-10T23:04:16.294Z,97283.81
2022-09-10T23:06:44.646Z,97293.25
2022-09-10T23:09:15.337Z,97298.10
2022-09-10T23:11:45.308Z,97301.73
2022-09-10T23:14:20.045Z,97304.83
2022-09-10T23:16:50.038Z,97313.62
2022-09-10T23:19:21.919Z,97312.89
2022-09-10T23:21:54.927Z,97306.66
2022-09-10T23:24:25.061Z,97305.88
2022-09-10T23:26:53.986Z,97314.83
2022-09-10T23:29:23.522Z,97312.30
2022-09-10T23:31:53.511Z,97314.67
2022-09-10T23:34:22.468Z,97312.80
2022-09-10T23:36:52.025Z,97309.25
2022-09-10T23:39:24.637Z,97313.89
2022-09-10T23:41:55.643Z,97321.06
2022-09-10T23:44:23.564Z,97319.49
2022-09-10T23:46:52.054Z,97313.23
2022-09-10T23:49:19.971Z,97318.98
2022-09-10T23:51:49.118Z,97319.81
2022-09-10T23:54:17.311Z,97320.39
2022-09-10T23:56:45.448Z,97319.52
2022-09-10T23:59:13.319Z,97313.63
